Time;durP1;ratioP1;P1;durP2;ratioP2;P2;SDS_P1;SDS_P2;PMS_P1;PMS_P2;Temp;Humidity;BMP_temperature;BMP_pressure;BME280_temperature;BME280_humidity;BME280_pressure;Samples;Min_cycle;Max_cycle;Signal;HPM_P1;HPM_P2
2023/01/13 00:05:16;;;;;;;50.17;22.63;;;;;;;;;;21004928;28;20140;-61
2023/01/13 00:15:18;;;;;;;56.15;22.88;;;;;;;;;;21004090;28;20060;-62
2023/01/13 00:25:22;;;;;;;46.03;22.58;;;;;;;;;;21004854;28;20401;-62
2023/01/13 00:35:24;;;;;;;46.10;21.30;;;;;;;;;;21003098;28;20045;-60
2023/01/13 00:45:26;;;;;;;42.97;21.20;;;;;;;;;;20985375;28;20056;-63
2023/01/13 00:55:31;;;;;;;52.88;20.38;;;;;;;;;;21005893;28;20053;-62
2023/01/13 01:05:34;;;;;;;34.58;19.10;;;;;;;;;;21000464;28;20483;-62
2023/01/13 01:15:39;;;;;;;35.15;19.00;;;;;;;;;;21002124;28;20044;-66
2023/01/13 01:25:41;;;;;;;36.90;19.77;;;;;;;;;;21005488;28;20056;-62
2023/01/13 01:35:43;;;;;;;41.60;19.10;;;;;;;;;;21002059;28;20392;-66
2023/01/13 01:45:45;;;;;;;38.35;19.42;;;;;;;;;;21006620;28;20049;-64
2023/01/13 01:55:47;;;;;;;37.88;20.38;;;;;;;;;;21020582;28;20045;-62
2023/01/13 02:05:50;;;;;;;37.45;20.85;;;;;;;;;;21006811;28;20471;-62
2023/01/13 02:15:52;;;;;;;44.22;20.80;;;;;;;;;;21004605;28;20052;-63
2023/01/13 02:26:05;;;;;;;50.45;20.38;;;;;;;;;;21009722;28;20056;-62
2023/01/13 02:36:09;;;;;;;46.05;22.05;;;;;;;;;;21014783;28;20577;-63
2023/01/13 02:46:26;;;;;;;39.17;20.98;;;;;;;;;;21014313;28;20110;-62
2023/01/13 02:56:49;;;;;;;35.35;20.05;;;;;;;;;;21009762;28;20051;-62
2023/01/13 03:07:05;;;;;;;32.30;19.45;;;;;;;;;;21009841;28;20087;-62
2023/01/13 03:17:46;;;;;;;33.30;19.38;;;;;;;;;;21008056;28;20045;-62
2023/01/13 03:28:03;;;;;;;33.50;19.00;;;;;;;;;;21007641;28;20554;-62
2023/01/13 03:38:11;;;;;;;33.20;19.35;;;;;;;;;;21005628;28;20056;-63
2023/01/13 03:48:30;;;;;;;35.33;20.02;;;;;;;;;;21009423;28;20492;-63
2023/01/13 03:58:45;;;;;;;31.45;18.27;;;;;;;;;;21005901;28;20577;-61
2023/01/13 04:09:16;;;;;;;28.90;17.73;;;;;;;;;;21006979;28;20054;-63
2023/01/13 04:19:38;;;;;;;33.00;19.30;;;;;;;;;;21004956;28;20396;-62
2023/01/13 04:29:59;;;;;;;36.63;19.15;;;;;;;;;;21003589;28;20055;-62
2023/01/13 04:40:21;;;;;;;36.08;21.13;;;;;;;;;;21003140;28;20044;-62
2023/01/13 04:50:43;;;;;;;33.58;18.48;;;;;;;;;;21001070;28;20056;-62
2023/01/13 05:01:05;;;;;;;31.13;16.80;;;;;;;;;;21001647;28;20416;-61
2023/01/13 05:32:28;;;;;;;31.10;18.10;;;;;;;;;;21072445;28;20533;-61
2023/01/13 05:52:51;;;;;;;47.08;22.98;;;;;;;;;;21077272;28;20396;-63
2023/01/13 06:02:53;;;;;;;46.25;23.13;;;;;;;;;;21070589;28;20080;-63
2023/01/13 06:12:56;;;;;;;45.95;24.13;;;;;;;;;;21070695;28;20048;-62
2023/01/13 06:23:00;;;;;;;41.47;22.43;;;;;;;;;;21071295;28;20051;-63
2023/01/13 06:33:04;;;;;;;43.60;23.25;;;;;;;;;;21015698;28;20131;-63
2023/01/13 06:43:15;;;;;;;45.83;24.42;;;;;;;;;;21016373;28;20052;-63
2023/01/13 06:53:17;;;;;;;43.30;23.55;;;;;;;;;;21014298;28;20076;-62
2023/01/13 07:03:19;;;;;;;39.50;22.48;;;;;;;;;;21012792;28;20047;-63
2023/01/13 07:23:42;;;;;;;47.38;24.77;;;;;;;;;;21004528;28;20047;-62
2023/01/13 07:33:44;;;;;;;44.03;24.85;;;;;;;;;;21004624;28;20080;-63
2023/01/13 07:43:46;;;;;;;45.72;24.95;;;;;;;;;;21002504;28;20504;-61
2023/01/13 07:53:48;;;;;;;47.05;25.27;;;;;;;;;;21002601;28;20044;-62
2023/01/13 08:03:50;;;;;;;38.95;24.83;;;;;;;;;;21005997;28;20045;-63
2023/01/13 08:13:57;;;;;;;34.08;20.67;;;;;;;;;;21008237;28;20060;-62
2023/01/13 08:24:02;;;;;;;35.70;21.98;;;;;;;;;;21002541;28;20048;-63
2023/01/13 08:34:07;;;;;;;35.53;22.67;;;;;;;;;;21006881;28;20049;-63
2023/01/13 08:44:09;;;;;;;33.90;21.55;;;;;;;;;;20998070;28;20087;-60
2023/01/13 08:54:11;;;;;;;31.48;21.35;;;;;;;;;;20996651;28;20048;-61
2023/01/13 09:04:23;;;;;;;35.40;21.52;;;;;;;;;;20997979;28;20071;-61
2023/01/13 09:14:27;;;;;;;36.90;22.08;;;;;;;;;;20996956;28;20076;-61
2023/01/13 09:24:29;;;;;;;34.55;23.30;;;;;;;;;;20996720;28;20041;-62
2023/01/13 09:44:59;;;;;;;40.20;22.55;;;;;;;;;;20995749;28;20076;-62
2023/01/13 09:55:01;;;;;;;38.05;23.27;;;;;;;;;;20995428;28;20203;-62
2023/01/13 10:05:15;;;;;;;36.80;22.20;;;;;;;;;;21003434;28;20090;-62
2023/01/13 10:15:21;;;;;;;36.63;23.75;;;;;;;;;;21007772;28;20059;-62
2023/01/13 10:25:23;;;;;;;40.95;24.90;;;;;;;;;;21007987;28;20485;-61
2023/01/13 10:35:44;;;;;;;39.85;23.17;;;;;;;;;;21006887;28;20048;-63
2023/01/13 10:45:57;;;;;;;37.28;24.52;;;;;;;;;;21006019;28;20056;-63
2023/01/13 10:56:01;;;;;;;35.60;22.58;;;;;;;;;;21004715;28;20052;-63
2023/01/13 11:06:03;;;;;;;36.45;22.45;;;9.40;66.70;;;;;;21004065;28;20048;-63
2023/01/13 11:16:13;;;;;;;32.22;18.92;;;9.50;66.80;;;;;;21000988;28;20064;-62
2023/01/13 11:26:25;;;;;;;29.00;19.10;;;9.70;65.10;;;;;;20988244;28;20048;-58
2023/01/13 11:36:51;;;;;;;31.60;19.92;;;9.90;65.00;;;;;;20999446;28;20048;-63
2023/01/13 11:46:53;;;;;;;;;;;10.20;64.50;;;;;;21000641;28;20550;-70
2023/01/13 11:56:58;;;;;;;30.05;19.48;;;;;;;;;;20998601;28;20342;-61
2023/01/13 12:07:19;;;;;;;32.97;20.60;;;;;;;;;;20999696;28;20057;-62
2023/01/13 12:17:36;;;;;;;27.95;20.20;;;;;;;;;;20998611;28;20489;-64
2023/01/13 12:27:41;;;;;;;32.35;20.60;;;;;;;;;;20997320;28;20181;-63
2023/01/13 12:37:51;;;;;;;29.43;20.03;;;;;;;;;;20928823;28;20085;-66
2023/01/13 12:47:53;;;;;;;29.92;19.60;;;;;;;;;;20979702;28;20048;-62
2023/01/13 12:57:57;;;;;;;26.27;17.58;;;;;;;;;;21001703;28;20549;-60
2023/01/13 13:08:14;;;;;;;32.20;20.52;;;;;;;;;;20996804;28;20404;-58
2023/01/13 13:18:17;;;;;;;31.80;21.70;;;;;;;;;;20994922;28;20056;-57
2023/01/13 13:28:21;;;;;;;32.03;20.08;;;;;;;;;;20993979;28;20101;-59
2023/01/13 13:48:55;;;;;;;27.35;19.63;;;;;;;;;;21010738;28;20484;-58
2023/01/13 13:58:57;;;;;;;32.08;20.48;;;;;;;;;;21010040;28;20044;-61
2023/01/13 14:08:59;;;;;;;34.42;21.60;;;;;;;;;;21009082;28;20396;-57
2023/01/13 14:19:02;;;;;;;29.95;20.52;;;;;;;;;;21007369;28;20099;-58
2023/01/13 14:29:04;;;;;;;30.25;19.17;;;;;;;;;;21007850;28;20400;-58
2023/01/13 14:39:06;;;;;;;28.15;19.60;;;;;;;;;;21008072;28;20129;-59
2023/01/13 14:49:20;;;;;;;29.88;19.77;;;;;;;;;;21005729;28;20134;-59
2023/01/13 14:59:35;;;;;;;33.20;21.23;;;;;;;;;;21004794;28;20044;-58
2023/01/13 15:09:41;;;;;;;30.65;20.50;;;;;;;;;;21005508;28;20373;-58
2023/01/13 15:19:43;;;;;;;31.27;21.10;;;;;;;;;;21003429;28;20057;-59
2023/01/13 15:29:45;;;;;;;30.83;19.58;;;;;;;;;;21003966;28;20095;-60
2023/01/13 15:39:47;;;;;;;32.50;19.38;;;;;;;;;;21002153;28;20049;-59
2023/01/13 15:49:49;;;;;;;28.20;18.17;;;;;;;;;;21001052;28;20079;-58
2023/01/13 15:59:52;;;;;;;27.23;18.23;;;;;;;;;;21000290;28;20044;-59
2023/01/13 16:09:54;;;;;;;26.10;17.13;;;;;;;;;;21000347;28;20048;-58
2023/01/13 16:19:56;;;;;;;25.38;16.67;;;;;;;;;;20998471;28;20052;-61
2023/01/13 16:30:00;;;;;;;28.17;17.70;;;;;;;;;;20977787;28;20174;-62
2023/01/13 16:40:02;;;;;;;21.90;15.07;;;;;;;;;;20997670;28;20106;-59
2023/01/13 16:50:04;;;;;;;25.33;14.55;;;;;;;;;;20988484;28;20045;-63
2023/01/13 17:00:07;;;;;;;26.30;18.13;;;;;;;;;;20930692;28;20114;-62
2023/01/13 17:10:16;;;;;;;31.40;20.38;;;;;;;;;;20980100;28;20045;-63
2023/01/13 17:20:18;;;;;;;31.13;17.05;;;;;;;;;;20944336;28;20126;-61
2023/01/13 17:30:21;;;;;;;28.73;18.23;;;;;;;;;;20977985;28;20048;-62
2023/01/13 17:40:23;;;;;;;28.30;19.23;;;;;;;;;;20985422;28;20472;-59
2023/01/13 17:50:26;;;;;;;21.88;14.60;;;;;;;;;;20960314;28;20064;-60
2023/01/13 18:00:28;;;;;;;27.58;16.90;;;;;;;;;;20921646;28;20048;-63
2023/01/13 18:10:32;;;;;;;21.92;15.68;;;;;;;;;;20988806;28;20052;-62
2023/01/13 18:30:55;;;;;;;28.17;17.77;;;;;;;;;;21006857;28;20110;-61
2023/01/13 18:40:57;;;;;;;36.33;23.08;;;;;;;;;;21005477;28;20101;-61
2023/01/13 18:50:59;;;;;;;36.70;24.27;;;;;;;;;;21005130;28;20048;-65
2023/01/13 19:01:03;;;;;;;28.85;19.20;;;;;;;;;;21004766;28;20139;-65
2023/01/13 19:11:06;;;;;;;22.23;14.73;;;;;;;;;;21003440;28;20094;-63
2023/01/13 19:21:11;;;;;;;;;;;;;;;;;;21002747;28;20442;-62
2023/01/13 19:31:14;;;;;;;27.65;17.35;;;;;;;;;;21003022;28;19963;-66
2023/01/13 19:51:36;;;;;;;29.83;20.38;;;;;;;;;;21001625;28;20076;-62
2023/01/13 20:01:39;;;;;;;31.23;20.40;;;;;;;;;;20998196;28;20048;-58
2023/01/13 20:11:42;;;;;;;36.40;22.92;;;;;;;;;;20999953;28;20507;-59
2023/01/13 20:21:44;;;;;;;37.25;22.67;;;;;;;;;;20997272;28;20542;-60
2023/01/13 20:31:46;;;;;;;36.78;23.27;;;;;;;;;;20997848;28;20044;-60
2023/01/13 20:52:09;;;;;;;25.33;17.73;;;;;;;;;;20997484;28;20427;-62
2023/01/13 21:02:13;;;;;;;32.50;18.95;;;;;;;;;;20997173;28;20526;-60
2023/01/13 21:22:37;;;;;;;25.58;16.33;;;;;;;;;;20996856;28;20429;-61
2023/01/13 21:32:40;;;;;;;26.52;17.27;;;;;;;;;;20995585;28;20067;-64
2023/01/13 21:53:02;;;;;;;28.15;17.45;;;;;;;;;;20995244;28;20071;-62
2023/01/13 22:03:10;;;;;;;29.48;17.25;;;;;;;;;;21008067;28;20056;-62
2023/01/13 22:23:34;;;;;;;25.38;15.98;;;;;;;;;;21010106;28;20506;-63
2023/01/13 22:33:37;;;;;;;30.42;19.80;;;;;;;;;;21008499;28;20045;-60
2023/01/13 22:43:39;;;;;;;25.75;16.00;;;;;;;;;;21007831;28;20040;-61
2023/01/13 22:53:42;;;;;;;23.00;16.80;;;;;;;;;;21006934;28;20045;-62
2023/01/13 23:03:46;;;;;;;25.65;16.15;;;;;;;;;;21006052;28;20094;-60
2023/01/13 23:13:48;;;;;;;23.92;15.73;;;;;;;;;;21005462;28;20137;-62
2023/01/13 23:23:50;;;;;;;25.55;16.25;;;;;;;;;;21004525;28;20098;-62
2023/01/13 23:33:52;;;;;;;30.05;17.02;;;;;;;;;;21003300;28;20136;-61
2023/01/13 23:43:58;;;;;;;39.65;25.58;;;;;;;;;;21002136;28;20089;-60
2023/01/13 23:54:00;;;;;;;42.85;28.17;;;;;;;;;;21002654;28;20080;-60
